sensor_id;sensor_type;location;lat;lon;timestamp;pressure;altitude;pressure_sealevel;temperature;humidity
61573;BME280;47465;43.094;12.434;2023-04-01T00:01:35;97855.44;;;12.18;100.00
61573;BME280;47465;43.094;12.434;2023-04-01T00:04:03;97828.59;;;12.03;100.00
61573;BME280;47465;43.094;12.434;2023-04-01T00:06:29;97858.13;;;12.18;100.00
61573;BME280;47465;43.094;12.434;2023-04-01T00:08:55;97855.59;;;12.15;100.00
61573;BME280;47465;43.094;12.434;2023-04-01T00:11:21;97837.53;;;12.02;100.00
61573;BME280;47465;43.094;12.434;2023-04-01T00:13:47;97857.31;;;12.16;100.00
61573;BME280;47465;43.094;12.434;2023-04-01T00:16:13;97857.47;;;12.12;100.00
61573;BME280;47465;43.094;12.434;2023-04-01T00:18:39;97851.59;;;12.06;100.00
61573;BME280;47465;43.094;12.434;2023-04-01T00:21:06;97834.13;;;11.99;100.00
61573;BME280;47465;43.094;12.434;2023-04-01T00:23:32;97837.19;;;11.91;100.00
61573;BME280;47465;43.094;12.434;2023-04-01T00:25:59;97852.56;;;12.03;100.00
61573;BME280;47465;43.094;12.434;2023-04-01T00:28:25;97843.09;;;11.98;100.00
61573;BME280;47465;43.094;12.434;2023-04-01T00:30:51;97824.56;;;11.95;100.00
61573;BME280;47465;43.094;12.434;2023-04-01T00:33:17;97835.59;;;12.06;100.00
61573;BME280;47465;43.094;12.434;2023-04-01T00:35:43;97836.59;;;12.03;100.00
61573;BME280;47465;43.094;12.434;2023-04-01T00:38:11;97844.38;;;12.08;100.00
61573;BME280;47465;43.094;12.434;2023-04-01T00:40:39;97826.38;;;11.94;100.00
61573;BME280;47465;43.094;12.434;2023-04-01T00:43:11;97846.38;;;12.03;100.00
61573;BME280;47465;43.094;12.434;2023-04-01T00:45:40;97860.28;;;12.09;100.00
61573;BME280;47465;43.094;12.434;2023-04-01T00:48:10;97841.06;;;12.03;100.00
61573;BME280;47465;43.094;12.434;2023-04-01T00:50:37;97827.22;;;11.95;100.00
61573;BME280;47465;43.094;12.434;2023-04-01T00:53:05;97842.78;;;12.04;100.00
61573;BME280;47465;43.094;12.434;2023-04-01T00:55:35;97823.47;;;11.99;100.00
61573;BME280;47465;43.094;12.434;2023-04-01T00:58:07;97830.09;;;12.09;100.00
61573;BME280;47465;43.094;12.434;2023-04-01T01:00:36;97808.38;;;11.99;100.00
61573;BME280;47465;43.094;12.434;2023-04-01T01:03:03;97828.91;;;11.97;100.00
61573;BME280;47465;43.094;12.434;2023-04-01T01:05:36;97824.22;;;12.02;100.00
61573;BME280;47465;43.094;12.434;2023-04-01T01:08:11;97808.00;;;11.88;100.00
61573;BME280;47465;43.094;12.434;2023-04-01T01:10:43;97819.16;;;11.96;100.00
61573;BME280;47465;43.094;12.434;2023-04-01T01:13:17;97828.41;;;11.89;100.00
61573;BME280;47465;43.094;12.434;2023-04-01T01:15:48;97824.25;;;11.82;100.00
61573;BME280;47465;43.094;12.434;2023-04-01T01:18:19;97807.78;;;11.74;100.00
61573;BME280;47465;43.094;12.434;2023-04-01T01:21:10;97819.59;;;11.87;100.00
61573;BME280;47465;43.094;12.434;2023-04-01T01:27:03;97816.84;;;11.69;100.00
61573;BME280;47465;43.094;12.434;2023-04-01T01:29:45;97822.47;;;11.63;100.00
61573;BME280;47465;43.094;12.434;2023-04-01T01:32:24;97820.88;;;11.78;100.00
61573;BME280;47465;43.094;12.434;2023-04-01T01:37:27;97802.47;;;11.74;100.00
61573;BME280;47465;43.094;12.434;2023-04-01T01:39:58;97797.94;;;11.76;100.00
61573;BME280;47465;43.094;12.434;2023-04-01T01:42:27;97810.81;;;11.85;100.00
61573;BME280;47465;43.094;12.434;2023-04-01T01:44:56;97799.69;;;11.75;100.00
61573;BME280;47465;43.094;12.434;2023-04-01T01:47:25;97806.72;;;11.78;100.00
61573;BME280;47465;43.094;12.434;2023-04-01T01:49:52;97787.13;;;11.60;100.00
61573;BME280;47465;43.094;12.434;2023-04-01T01:52:18;97799.41;;;11.62;100.00
61573;BME280;47465;43.094;12.434;2023-04-01T01:54:49;97803.97;;;11.60;100.00
61573;BME280;47465;43.094;12.434;2023-04-01T01:57:17;97793.59;;;11.54;100.00
61573;BME280;47465;43.094;12.434;2023-04-01T01:59:45;97797.34;;;11.50;100.00
61573;BME280;47465;43.094;12.434;2023-04-01T02:02:13;97780.00;;;11.41;100.00
61573;BME280;47465;43.094;12.434;2023-04-01T02:04:42;97804.25;;;11.54;100.00
61573;BME280;47465;43.094;12.434;2023-04-01T02:07:12;97800.91;;;11.49;100.00
61573;BME280;47465;43.094;12.434;2023-04-01T02:09:40;97783.66;;;11.39;100.00
61573;BME280;47465;43.094;12.434;2023-04-01T02:12:09;97776.81;;;11.33;100.00
61573;BME280;47465;43.094;12.434;2023-04-01T02:14:39;97784.59;;;11.38;100.00
61573;BME280;47465;43.094;12.434;2023-04-01T02:17:10;97792.50;;;11.39;100.00
61573;BME280;47465;43.094;12.434;2023-04-01T02:19:39;97793.75;;;11.32;100.00
61573;BME280;47465;43.094;12.434;2023-04-01T02:22:09;97789.53;;;11.26;100.00
61573;BME280;47465;43.094;12.434;2023-04-01T02:24:37;97778.38;;;11.18;100.00
61573;BME280;47465;43.094;12.434;2023-04-01T02:27:04;97794.72;;;11.29;100.00
61573;BME280;47465;43.094;12.434;2023-04-01T02:29:32;97773.13;;;11.17;100.00
61573;BME280;47465;43.094;12.434;2023-04-01T02:31:58;97761.84;;;11.12;100.00
61573;BME280;47465;43.094;12.434;2023-04-01T02:34:24;97765.56;;;11.07;100.00
61573;BME280;47465;43.094;12.434;2023-04-01T02:36:51;97765.63;;;11.06;100.00
61573;BME280;47465;43.094;12.434;2023-04-01T02:39:17;97785.72;;;11.13;100.00
61573;BME280;47465;43.094;12.434;2023-04-01T02:41:45;97781.88;;;11.00;100.00
61573;BME280;47465;43.094;12.434;2023-04-01T02:44:12;97787.06;;;11.03;100.00
61573;BME280;47465;43.094;12.434;2023-04-01T02:46:40;97774.22;;;10.92;100.00
61573;BME280;47465;43.094;12.434;2023-04-01T02:49:06;97760.97;;;10.72;100.00
61573;BME280;47465;43.094;12.434;2023-04-01T02:51:32;97787.16;;;10.81;100.00
61573;BME280;47465;43.094;12.434;2023-04-01T02:53:58;97799.50;;;10.82;100.00
61573;BME280;47465;43.094;12.434;2023-04-01T02:56:24;97767.53;;;10.63;100.00
61573;BME280;47465;43.094;12.434;2023-04-01T02:58:51;97784.31;;;10.65;100.00
61573;BME280;47465;43.094;12.434;2023-04-01T03:01:17;97800.09;;;10.68;100.00
61573;BME280;47465;43.094;12.434;2023-04-01T03:03:45;97782.81;;;10.58;100.00
61573;BME280;47465;43.094;12.434;2023-04-01T03:06:13;97804.88;;;10.60;100.00
61573;BME280;47465;43.094;12.434;2023-04-01T03:08:39;97797.34;;;10.49;100.00
61573;BME280;47465;43.094;12.434;2023-04-01T03:11:05;97812.41;;;10.50;100.00
61573;BME280;47465;43.094;12.434;2023-04-01T03:13:31;97795.34;;;10.34;98.51
61573;BME280;47465;43.094;12.434;2023-04-01T03:15:57;97809.69;;;10.30;99.13
61573;BME280;47465;43.094;12.434;2023-04-01T03:18:23;97804.53;;;10.25;99.31
61573;BME280;47465;43.094;12.434;2023-04-01T03:20:50;97827.53;;;10.26;99.02
61573;BME280;47465;43.094;12.434;2023-04-01T03:23:16;97824.78;;;10.27;99.09
61573;BME280;47465;43.094;12.434;2023-04-01T03:25:45;97821.97;;;10.10;99.26
61573;BME280;47465;43.094;12.434;2023-04-01T03:28:11;97826.97;;;10.18;98.96
61573;BME280;47465;43.094;12.434;2023-04-01T03:30:37;97844.97;;;10.11;99.08
61573;BME280;47465;43.094;12.434;2023-04-01T03:33:03;97827.69;;;9.99;99.57
61573;BME280;47465;43.094;12.434;2023-04-01T03:35:29;97824.03;;;9.80;100.00
61573;BME280;47465;43.094;12.434;2023-04-01T03:37:56;97811.81;;;9.76;100.00
61573;BME280;47465;43.094;12.434;2023-04-01T03:40:22;97821.34;;;9.81;100.00
61573;BME280;47465;43.094;12.434;2023-04-01T03:42:49;97815.53;;;9.72;100.00
61573;BME280;47465;43.094;12.434;2023-04-01T03:45:15;97806.94;;;9.65;100.00
61573;BME280;47465;43.094;12.434;2023-04-01T03:47:41;97810.31;;;9.69;100.00
61573;BME280;47465;43.094;12.434;2023-04-01T03:50:08;97824.97;;;9.79;100.00
61573;BME280;47465;43.094;12.434;2023-04-01T03:52:34;97822.13;;;9.83;100.00
61573;BME280;47465;43.094;12.434;2023-04-01T03:55:02;97809.97;;;9.78;100.00
61573;BME280;47465;43.094;12.434;2023-04-01T03:57:30;97796.94;;;9.72;100.00
61573;BME280;47465;43.094;12.434;2023-04-01T03:59:56;97814.22;;;9.82;100.00
61573;BME280;47465;43.094;12.434;2023-04-01T04:02:22;97824.50;;;9.91;100.00
61573;BME280;47465;43.094;12.434;2023-04-01T04:04:48;97795.34;;;9.90;100.00
61573;BME280;47465;43.094;12.434;2023-04-01T04:07:13;97814.56;;;9.96;100.00
61573;BME280;47465;43.094;12.434;2023-04-01T04:09:39;97808.56;;;9.91;100.00
61573;BME280;47465;43.094;12.434;2023-04-01T04:12:07;97807.69;;;9.91;100.00
61573;BME280;47465;43.094;12.434;2023-04-01T04:14:33;97817.78;;;10.04;100.00
61573;BME280;47465;43.094;12.434;2023-04-01T04:16:59;97781.25;;;10.10;97.07
61573;BME280;47465;43.094;12.434;2023-04-01T04:19:25;97784.78;;;10.32;93.76
61573;BME280;47465;43.094;12.434;2023-04-01T04:21:50;97793.00;;;10.48;91.26
61573;BME280;47465;43.094;12.434;2023-04-01T04:24:16;97773.22;;;10.33;90.39
61573;BME280;47465;43.094;12.434;2023-04-01T04:26:42;97793.44;;;10.37;90.55
61573;BME280;47465;43.094;12.434;2023-04-01T04:29:10;97798.06;;;10.32;90.88
61573;BME280;47465;43.094;12.434;2023-04-01T04:31:36;97798.50;;;10.21;92.06
61573;BME280;47465;43.094;12.434;2023-04-01T04:34:02;97783.09;;;10.07;92.04
61573;BME280;47465;43.094;12.434;2023-04-01T04:36:28;97803.16;;;10.15;91.52
61573;BME280;47465;43.094;12.434;2023-04-01T04:38:54;97772.00;;;9.98;91.45
61573;BME280;47465;43.094;12.434;2023-04-01T04:41:20;97786.00;;;10.01;91.36
61573;BME280;47465;43.094;12.434;2023-04-01T04:43:51;97788.66;;;10.01;90.91
61573;BME280;47465;43.094;12.434;2023-04-01T04:46:20;97800.47;;;9.94;91.77
61573;BME280;47465;43.094;12.434;2023-04-01T04:48:46;97811.34;;;9.88;93.06
61573;BME280;47465;43.094;12.434;2023-04-01T04:51:14;97807.66;;;9.69;94.20
61573;BME280;47465;43.094;12.434;2023-04-01T04:53:41;97796.78;;;9.53;95.98
61573;BME280;47465;43.094;12.434;2023-04-01T04:56:06;97800.63;;;9.45;97.48
61573;BME280;47465;43.094;12.434;2023-04-01T04:58:32;97812.34;;;9.38;99.25
61573;BME280;47465;43.094;12.434;2023-04-01T05:00:59;97822.13;;;9.38;99.35
61573;BME280;47465;43.094;12.434;2023-04-01T05:03:26;97801.56;;;9.19;99.60
61573;BME280;47465;43.094;12.434;2023-04-01T05:05:53;97797.53;;;9.09;99.88
61573;BME280;47465;43.094;12.434;2023-04-01T05:08:19;97791.88;;;8.95;99.14
61573;BME280;47465;43.094;12.434;2023-04-01T05:10:45;97813.53;;;9.06;99.99
61573;BME280;47465;43.094;12.434;2023-04-01T05:13:11;97819.16;;;8.98;100.00
61573;BME280;47465;43.094;12.434;2023-04-01T05:15:37;97819.25;;;8.95;100.00
61573;BME280;47465;43.094;12.434;2023-04-01T05:18:03;97815.25;;;8.83;100.00
61573;BME280;47465;43.094;12.434;2023-04-01T05:20:30;97814.44;;;8.81;100.00
61573;BME280;47465;43.094;12.434;2023-04-01T05:22:56;97805.06;;;8.71;100.00
61573;BME280;47465;43.094;12.434;2023-04-01T05:25:22;97812.28;;;8.68;100.00
61573;BME280;47465;43.094;12.434;2023-04-01T05:27:48;97831.75;;;8.92;100.00
61573;BME280;47465;43.094;12.434;2023-04-01T05:30:14;97824.63;;;8.94;100.00
61573;BME280;47465;43.094;12.434;2023-04-01T05:32:40;97803.03;;;9.04;98.52
61573;BME280;47465;43.094;12.434;2023-04-01T05:35:06;97830.06;;;9.14;97.65
61573;BME280;47465;43.094;12.434;2023-04-01T05:37:34;97837.19;;;9.12;97.99
61573;BME280;47465;43.094;12.434;2023-04-01T05:40:02;97844.50;;;9.05;98.71
61573;BME280;47465;43.094;12.434;2023-04-01T05:42:28;97849.78;;;9.07;99.62
61573;BME280;47465;43.094;12.434;2023-04-01T05:44:54;97834.25;;;8.96;99.50
61573;BME280;47465;43.094;12.434;2023-04-01T05:47:21;97852.50;;;9.04;99.71
61573;BME280;47465;43.094;12.434;2023-04-01T05:49:47;97848.41;;;8.95;100.00
61573;BME280;47465;43.094;12.434;2023-04-01T05:52:13;97845.72;;;8.97;100.00
61573;BME280;47465;43.094;12.434;2023-04-01T05:54:40;97848.78;;;9.10;100.00
61573;BME280;47465;43.094;12.434;2023-04-01T05:57:06;97862.47;;;9.22;100.00
61573;BME280;47465;43.094;12.434;2023-04-01T05:59:32;97882.63;;;9.52;100.00
61573;BME280;47465;43.094;12.434;2023-04-01T06:01:58;97886.31;;;9.71;100.00
61573;BME280;47465;43.094;12.434;2023-04-01T06:04:24;97895.09;;;9.97;100.00
61573;BME280;47465;43.094;12.434;2023-04-01T06:06:51;97890.97;;;10.12;100.00
61573;BME280;47465;43.094;12.434;2023-04-01T06:09:18;97883.34;;;10.26;97.33
61573;BME280;47465;43.094;12.434;2023-04-01T06:12:00;97879.16;;;10.42;95.77
61573;BME280;47465;43.094;12.434;2023-04-01T06:14:37;97901.56;;;10.79;91.21
61573;BME280;47465;43.094;12.434;2023-04-01T06:17:19;97888.81;;;10.87;92.29
61573;BME280;47465;43.094;12.434;2023-04-01T06:19:55;97885.03;;;10.93;92.06
61573;BME280;47465;43.094;12.434;2023-04-01T06:22:49;97900.34;;;11.08;92.08
61573;BME280;47465;43.094;12.434;2023-04-01T06:25:32;97906.31;;;11.14;92.91
61573;BME280;47465;43.094;12.434;2023-04-01T06:31:01;97910.78;;;11.13;97.16
61573;BME280;47465;43.094;12.434;2023-04-01T06:33:44;97909.63;;;11.19;99.77
61573;BME280;47465;43.094;12.434;2023-04-01T06:36:42;97910.22;;;11.25;100.00
61573;BME280;47465;43.094;12.434;2023-04-01T06:39:26;97931.78;;;11.40;100.00
61573;BME280;47465;43.094;12.434;2023-04-01T06:42:20;97924.13;;;11.52;100.00
61573;BME280;47465;43.094;12.434;2023-04-01T06:44:59;97911.19;;;11.64;100.00
61573;BME280;47465;43.094;12.434;2023-04-01T06:47:49;97929.34;;;11.95;100.00
61573;BME280;47465;43.094;12.434;2023-04-01T06:50:22;97923.44;;;12.07;100.00
61573;BME280;47465;43.094;12.434;2023-04-01T06:52:56;97905.56;;;12.09;100.00
61573;BME280;47465;43.094;12.434;2023-04-01T06:55:27;97926.03;;;12.28;99.33
61573;BME280;47465;43.094;12.434;2023-04-01T06:57:57;97917.81;;;12.32;98.95
61573;BME280;47465;43.094;12.434;2023-04-01T07:00:30;97935.53;;;12.52;97.71
61573;BME280;47465;43.094;12.434;2023-04-01T07:03:04;97932.84;;;12.71;97.17
61573;BME280;47465;43.094;12.434;2023-04-01T07:05:33;97925.09;;;12.84;95.85
61573;BME280;47465;43.094;12.434;2023-04-01T07:08:01;97948.97;;;13.05;94.10
61573;BME280;47465;43.094;12.434;2023-04-01T07:10:33;97943.78;;;13.02;94.92
61573;BME280;47465;43.094;12.434;2023-04-01T07:13:05;97937.50;;;13.03;91.35
61573;BME280;47465;43.094;12.434;2023-04-01T07:15:40;97925.19;;;13.00;85.67
61573;BME280;47465;43.094;12.434;2023-04-01T07:18:11;97927.13;;;13.14;88.61
61573;BME280;47465;43.094;12.434;2023-04-01T07:20:39;97942.84;;;13.20;85.73
61573;BME280;47465;43.094;12.434;2023-04-01T07:23:08;97941.09;;;13.38;86.42
61573;BME280;47465;43.094;12.434;2023-04-01T07:25:38;97943.03;;;13.52;85.12
61573;BME280;47465;43.094;12.434;2023-04-01T07:28:06;97949.22;;;13.70;83.63
61573;BME280;47465;43.094;12.434;2023-04-01T07:30:48;97948.91;;;13.59;80.05
61573;BME280;47465;43.094;12.434;2023-04-01T07:33:19;97946.28;;;13.74;78.99
61573;BME280;47465;43.094;12.434;2023-04-01T07:35:53;97964.28;;;13.88;79.02
61573;BME280;47465;43.094;12.434;2023-04-01T07:38:28;97950.47;;;13.80;78.07
61573;BME280;47465;43.094;12.434;2023-04-01T07:41:03;97957.09;;;13.73;78.93
61573;BME280;47465;43.094;12.434;2023-04-01T07:43:42;97968.31;;;13.80;76.35
61573;BME280;47465;43.094;12.434;2023-04-01T07:46:14;97977.16;;;13.47;76.52
61573;BME280;47465;43.094;12.434;2023-04-01T07:48:47;97969.91;;;12.95;77.93
61573;BME280;47465;43.094;12.434;2023-04-01T07:51:17;97968.66;;;13.02;78.31
61573;BME280;47465;43.094;12.434;2023-04-01T07:53:51;97969.69;;;13.00;78.80
61573;BME280;47465;43.094;12.434;2023-04-01T07:56:23;97967.38;;;13.28;79.48
61573;BME280;47465;43.094;12.434;2023-04-01T07:58:59;97960.38;;;13.61;80.52
61573;BME280;47465;43.094;12.434;2023-04-01T08:01:32;97956.22;;;14.06;77.54
61573;BME280;47465;43.094;12.434;2023-04-01T08:04:18;97961.50;;;14.23;76.71
61573;BME280;47465;43.094;12.434;2023-04-01T08:06:52;97972.28;;;14.37;75.08
61573;BME280;47465;43.094;12.434;2023-04-01T08:09:25;97971.69;;;14.32;73.01
61573;BME280;47465;43.094;12.434;2023-04-01T08:12:04;97964.25;;;14.37;71.94
61573;BME280;47465;43.094;12.434;2023-04-01T08:14:37;97939.00;;;14.27;73.88
61573;BME280;47465;43.094;12.434;2023-04-01T08:17:12;97970.19;;;14.76;74.10
61573;BME280;47465;43.094;12.434;2023-04-01T08:19:53;97940.19;;;15.01;71.39
61573;BME280;47465;43.094;12.434;2023-04-01T08:22:26;97955.25;;;15.78;67.38
61573;BME280;47465;43.094;12.434;2023-04-01T08:24:55;97931.50;;;15.87;66.65
61573;BME280;47465;43.094;12.434;2023-04-01T08:27:34;97940.31;;;16.17;64.60
61573;BME280;47465;43.094;12.434;2023-04-01T08:30:06;97940.31;;;16.88;65.67
61573;BME280;47465;43.094;12.434;2023-04-01T08:32:44;97914.53;;;16.85;62.20
61573;BME280;47465;43.094;12.434;2023-04-01T08:35:20;97925.53;;;16.39;62.71
61573;BME280;47465;43.094;12.434;2023-04-01T08:37:50;97916.75;;;16.08;64.49
61573;BME280;47465;43.094;12.434;2023-04-01T08:40:41;97934.97;;;15.89;65.02
61573;BME280;47465;43.094;12.434;2023-04-01T08:43:25;97936.88;;;15.87;67.26
61573;BME280;47465;43.094;12.434;2023-04-01T08:46:11;97942.47;;;15.23;65.42
61573;BME280;47465;43.094;12.434;2023-04-01T08:51:52;97921.75;;;15.86;62.77
61573;BME280;47465;43.094;12.434;2023-04-01T08:54:46;97958.03;;;15.91;62.32
61573;BME280;47465;43.094;12.434;2023-04-01T08:57:21;97972.91;;;16.40;60.02
61573;BME280;47465;43.094;12.434;2023-04-01T09:00:22;97950.59;;;16.81;57.66
61573;BME280;47465;43.094;12.434;2023-04-01T09:03:08;97955.66;;;16.15;60.36
61573;BME280;47465;43.094;12.434;2023-04-01T09:05:44;97954.13;;;16.11;60.68
61573;BME280;47465;43.094;12.434;2023-04-01T09:08:25;97975.25;;;16.59;59.20
61573;BME280;47465;43.094;12.434;2023-04-01T09:11:01;97972.03;;;16.95;56.97
61573;BME280;47465;43.094;12.434;2023-04-01T09:13:41;97957.50;;;17.65;55.30
61573;BME280;47465;43.094;12.434;2023-04-01T09:16:29;97948.44;;;17.53;54.06
61573;BME280;47465;43.094;12.434;2023-04-01T09:19:33;97980.28;;;17.47;54.52
61573;BME280;47465;43.094;12.434;2023-04-01T09:22:19;97957.44;;;16.99;56.78
61573;BME280;47465;43.094;12.434;2023-04-01T09:25:01;97990.47;;;17.14;56.09
61573;BME280;47465;43.094;12.434;2023-04-01T09:27:39;97973.19;;;16.35;56.36
61573;BME280;47465;43.094;12.434;2023-04-01T09:30:32;97957.78;;;16.25;56.84
61573;BME280;47465;43.094;12.434;2023-04-01T09:36:01;97984.91;;;16.76;58.38
61573;BME280;47465;43.094;12.434;2023-04-01T09:38:32;97968.13;;;16.16;57.37
61573;BME280;47465;43.094;12.434;2023-04-01T09:41:07;97989.19;;;16.08;59.69
61573;BME280;47465;43.094;12.434;2023-04-01T09:43:57;97988.47;;;15.46;59.76
61573;BME280;47465;43.094;12.434;2023-04-01T09:46:30;97986.91;;;14.95;59.05
61573;BME280;47465;43.094;12.434;2023-04-01T09:52:09;97974.50;;;15.85;58.42
61573;BME280;47465;43.094;12.434;2023-04-01T09:54:51;97982.47;;;17.00;55.96
61573;BME280;47465;43.094;12.434;2023-04-01T09:57:44;97971.13;;;16.82;52.29
61573;BME280;47465;43.094;12.434;2023-04-01T10:03:20;97948.78;;;16.67;52.43
61573;BME280;47465;43.094;12.434;2023-04-01T10:09:34;97936.03;;;16.85;52.91
61573;BME280;47465;43.094;12.434;2023-04-01T10:12:32;97936.66;;;16.89;50.65
61573;BME280;47465;43.094;12.434;2023-04-01T10:15:24;97932.03;;;17.18;49.48
61573;BME280;47465;43.094;12.434;2023-04-01T10:18:21;97945.34;;;17.19;51.22
61573;BME280;47465;43.094;12.434;2023-04-01T10:27:10;97940.25;;;17.02;50.57
61573;BME280;47465;43.094;12.434;2023-04-01T10:30:02;97910.13;;;16.42;50.37
61573;BME280;47465;43.094;12.434;2023-04-01T10:39:17;97911.81;;;16.43;49.03
61573;BME280;47465;43.094;12.434;2023-04-01T10:48:13;97891.16;;;16.73;47.47
61573;BME280;47465;43.094;12.434;2023-04-01T10:51:15;97913.91;;;17.34;49.33
61573;BME280;47465;43.094;12.434;2023-04-01T10:53:51;97886.72;;;16.72;46.67
61573;BME280;47465;43.094;12.434;2023-04-01T10:56:40;97876.09;;;16.97;46.46
61573;BME280;47465;43.094;12.434;2023-04-01T11:05:57;97895.97;;;17.60;44.34
61573;BME280;47465;43.094;12.434;2023-04-01T11:09:09;97897.25;;;17.29;45.14
61573;BME280;47465;43.094;12.434;2023-04-01T11:12:03;97873.84;;;17.44;45.28
61573;BME280;47465;43.094;12.434;2023-04-01T11:15:00;97892.19;;;17.24;43.83
61573;BME280;47465;43.094;12.434;2023-04-01T11:21:15;97913.16;;;17.32;46.19
61573;BME280;47465;43.094;12.434;2023-04-01T11:24:07;97900.50;;;16.53;44.60
61573;BME280;47465;43.094;12.434;2023-04-01T11:26:49;97890.25;;;16.59;45.40
61573;BME280;47465;43.094;12.434;2023-04-01T11:32:38;97878.44;;;16.89;44.61
61573;BME280;47465;43.094;12.434;2023-04-01T11:35:28;97876.81;;;16.87;45.83
61573;BME280;47465;43.094;12.434;2023-04-01T11:38:07;97871.19;;;17.17;46.81
61573;BME280;47465;43.094;12.434;2023-04-01T11:40:41;97866.91;;;17.14;45.05
61573;BME280;47465;43.094;12.434;2023-04-01T11:43:15;97864.50;;;16.97;44.46
61573;BME280;47465;43.094;12.434;2023-04-01T11:45:49;97862.34;;;17.02;44.18
61573;BME280;47465;43.094;12.434;2023-04-01T11:48:38;97842.81;;;17.13;43.00
61573;BME280;47465;43.094;12.434;2023-04-01T11:51:24;97866.81;;;17.16;43.42
61573;BME280;47465;43.094;12.434;2023-04-01T11:54:01;97833.25;;;16.69;42.26
61573;BME280;47465;43.094;12.434;2023-04-01T11:56:41;97878.91;;;17.09;44.00
61573;BME280;47465;43.094;12.434;2023-04-01T11:59:44;97849.53;;;17.20;43.04
61573;BME280;47465;43.094;12.434;2023-04-01T12:02:18;97834.56;;;17.16;43.15
61573;BME280;47465;43.094;12.434;2023-04-01T12:04:54;97841.66;;;17.17;43.06
61573;BME280;47465;43.094;12.434;2023-04-01T12:07:43;97824.16;;;17.11;42.54
61573;BME280;47465;43.094;12.434;2023-04-01T12:10:19;97838.00;;;17.05;42.93
61573;BME280;47465;43.094;12.434;2023-04-01T12:12:54;97810.25;;;17.17;44.57
61573;BME280;47465;43.094;12.434;2023-04-01T12:15:31;97811.66;;;17.74;43.88
61573;BME280;47465;43.094;12.434;2023-04-01T12:18:09;97820.81;;;17.84;42.52
61573;BME280;47465;43.094;12.434;2023-04-01T12:20:45;97806.19;;;17.89;43.77
61573;BME280;47465;43.094;12.434;2023-04-01T12:23:25;97836.16;;;18.08;41.17
61573;BME280;47465;43.094;12.434;2023-04-01T12:26:15;97809.09;;;17.85;42.08
61573;BME280;47465;43.094;12.434;2023-04-01T12:29:03;97814.56;;;17.97;42.19
61573;BME280;47465;43.094;12.434;2023-04-01T12:31:42;97792.78;;;18.00;44.06
61573;BME280;47465;43.094;12.434;2023-04-01T12:37:39;97788.31;;;18.24;42.99
61573;BME280;47465;43.094;12.434;2023-04-01T12:40:30;97787.03;;;18.54;43.62
61573;BME280;47465;43.094;12.434;2023-04-01T12:43:14;97770.72;;;18.56;43.03
61573;BME280;47465;43.094;12.434;2023-04-01T12:45:53;97760.09;;;18.54;42.21
61573;BME280;47465;43.094;12.434;2023-04-01T12:48:44;97787.66;;;18.93;40.79
61573;BME280;47465;43.094;12.434;2023-04-01T12:51:47;97753.88;;;18.89;41.42
61573;BME280;47465;43.094;12.434;2023-04-01T12:57:46;97753.91;;;19.00;40.13
61573;BME280;47465;43.094;12.434;2023-04-01T13:03:44;97749.53;;;19.33;40.53
61573;BME280;47465;43.094;12.434;2023-04-01T13:06:29;97741.44;;;19.44;39.77
61573;BME280;47465;43.094;12.434;2023-04-01T13:09:10;97733.09;;;19.02;39.32
61573;BME280;47465;43.094;12.434;2023-04-01T13:11:55;97758.28;;;18.31;39.87
61573;BME280;47465;43.094;12.434;2023-04-01T13:14:40;97733.50;;;18.25;40.47
61573;BME280;47465;43.094;12.434;2023-04-01T13:17:15;97735.53;;;18.35;41.21
61573;BME280;47465;43.094;12.434;2023-04-01T13:19:48;97736.22;;;18.01;41.24
61573;BME280;47465;43.094;12.434;2023-04-01T13:22:21;97733.41;;;18.27;41.42
61573;BME280;47465;43.094;12.434;2023-04-01T13:24:52;97740.72;;;18.49;42.78
61573;BME280;47465;43.094;12.434;2023-04-01T13:27:30;97724.28;;;18.41;40.52
61573;BME280;47465;43.094;12.434;2023-04-01T13:30:10;97720.25;;;18.35;39.95
61573;BME280;47465;43.094;12.434;2023-04-01T13:32:44;97729.56;;;18.18;39.75
61573;BME280;47465;43.094;12.434;2023-04-01T13:35:26;97715.56;;;18.26;40.45
61573;BME280;47465;43.094;12.434;2023-04-01T13:40:59;97721.09;;;18.36;36.62
61573;BME280;47465;43.094;12.434;2023-04-01T13:43:32;97718.66;;;18.33;37.30
61573;BME280;47465;43.094;12.434;2023-04-01T13:52:32;97706.97;;;18.56;35.51
61573;BME280;47465;43.094;12.434;2023-04-01T13:55:34;97721.72;;;18.75;35.78
61573;BME280;47465;43.094;12.434;2023-04-01T13:58:30;97747.28;;;18.69;36.25
61573;BME280;47465;43.094;12.434;2023-04-01T14:01:06;97713.44;;;18.54;34.04
61573;BME280;47465;43.094;12.434;2023-04-01T14:04:08;97712.47;;;18.55;34.46
61573;BME280;47465;43.094;12.434;2023-04-01T14:06:49;97714.22;;;18.32;32.39
61573;BME280;47465;43.094;12.434;2023-04-01T14:12:30;97698.66;;;18.24;34.84
61573;BME280;47465;43.094;12.434;2023-04-01T14:18:00;97679.81;;;18.59;35.27
61573;BME280;47465;43.094;12.434;2023-04-01T14:20:33;97682.53;;;18.71;35.59
61573;BME280;47465;43.094;12.434;2023-04-01T14:23:22;97686.53;;;18.65;34.18
61573;BME280;47465;43.094;12.434;2023-04-01T14:26:15;97694.88;;;18.62;34.46
61573;BME280;47465;43.094;12.434;2023-04-01T14:28:51;97687.78;;;18.61;35.29
61573;BME280;47465;43.094;12.434;2023-04-01T14:31:36;97702.59;;;18.66;34.89
61573;BME280;47465;43.094;12.434;2023-04-01T14:34:18;97672.69;;;18.58;35.33
61573;BME280;47465;43.094;12.434;2023-04-01T14:40:14;97692.19;;;18.73;33.99
61573;BME280;47465;43.094;12.434;2023-04-01T14:43:03;97686.97;;;18.72;34.23
61573;BME280;47465;43.094;12.434;2023-04-01T14:45:49;97671.91;;;18.34;35.83
61573;BME280;47465;43.094;12.434;2023-04-01T14:48:30;97667.50;;;18.33;35.38
61573;BME280;47465;43.094;12.434;2023-04-01T14:51:03;97686.84;;;18.38;36.50